Portada
METAR-TAF:

METAR-TAF

Aeroports :

Ipoh, Malàisia

latitud: 04-34-09N, longitud: 101-05-35E, altitud: 40 m

Observació

L'informe es va fer fa 29 minuts, a les 12:00 UTC
Vent calma
Temperatura 26°C
Humitat 89%
Pressió 1011 hPa
Visibilitat: 8000 m
Escasses núvols a una alçada de 3000 ft

METAR: WMKI 071200Z 00000KT 8000 FEW030 26/24 Q1011

Hora: 20:29 (12:29 UTC)

Pronòstic

L'informe es va fer fa 1 hora i 29 minuts, a les 11:00 UTC
Pronòstic vàlid del 07 a les 12 UTC al 08 a les 12 UTC
Vent 8 kt del Nord-Est
Visibilitat: 9000 m
Escasses núvols a una alçada de 2000 ft

TAF: WMKI 071100Z 0712/0812 04008KT 9000 FEW020

Observacions i pronòstics meteorològics de més de 4000 aeroports (METAR i TAF).

Les estacions disponibles són els punts grocs i vermells al mapa.

Posi el ratolí al punt desitjat per veure el nom de l'estació.

Feu clic per veure les observacions i els pronòstics meteorològics.

Per canviar el mapa: feu clic els botons verds amb una creu de color negre per apropar; al botó verd amb un guió per allunyar la imatge; o en les fletxes verdes per a mapes adjacents.


METAR-TAF: